• Join FlightAware (Why Join?)
  • Login
  • US Flag GB Flag 
18:57 EDT


 

Airport Tracker/Info


-or-


 

Live Flight TrackerFlight Track Log ✈ N682RW ✈ 14-Apr-2013 ✈ KOAK - KBFI

Flight Track Log - Related Links

Times and Time Zones

All times are in EDT time to prevent confusion due to time zone crossing. See the N682RW flight status page for this flight to view local times or setup timezone preferences in your user account.

Time Position Orientation Groundspeed Altitude Reporting Facility
EDT Latitude Longitude Course Direction KTS MPH feet Rate Location/Type
21:06 37.7217 -122.2439 310° West 150 173 1,300  Level Oakland Center
21:07 37.7569 -122.2975 310° West 209 241 2,000 1,500 Climbing Oakland Center
21:08 37.8125 -122.3753 312° West 248 285 4,400 2,700 Climbing Oakland Center
21:09 37.8814 -122.3625 North 268 308 7,500 2,820 Climbing Oakland Center
21:10 37.9508 -122.3267 22° Northeast 272 313 10,200 1,860 Climbing Oakland Center
21:11 38.0286 -122.2819 24° Northeast 303 349 11,400 1,800 Climbing Oakland Center
21:12 38.1172 -122.2283 25° Northeast 351 404 13,900 2,220 Climbing Oakland Center
21:13 38.2100 -122.1756 24° Northeast 367 422 16,000 2,280 Climbing Oakland Center
21:14 38.3064 -122.1217 24° Northeast 378 435 18,600 2,160 Climbing Oakland Center
21:15 38.4028 -122.1239 359° North 353 406 20,500 1,800 Climbing Oakland Center
21:16 38.5225 -122.1403 354° North 361 415 22,300 1,200 Climbing Oakland Center
21:17 38.6275 -122.1453 358° North 376 433 23,000 420 Climbing Oakland Center
21:18 38.7283 -122.1519 357° North 374 430 23,200 600 Climbing Oakland Center
21:19 38.8314 -122.1603 356° North 369 425 24,300 1,260 Climbing Oakland Center
21:20 38.9389 -122.1653 358° North 382 440 25,800 1,320 Climbing Oakland Center
21:21 39.0475 -122.1728 357° North 386 444 27,000 1,320 Climbing Oakland Center
21:22 39.1589 -122.1806 357° North 395 455 28,600 1,320 Climbing Oakland Center
21:23 39.2703 -122.1842 359° North 399 459 29,800 1,020 Climbing Oakland Center
21:24 39.3817 -122.1917 357° North 401 461 30,700 960 Climbing Oakland Center
21:25 39.5033 -122.2000 357° North 399 459 31,800 600 Climbing Oakland Center
21:26 39.6147 -122.2058 358° North 400 460 32,000 60 Climbing Oakland Center
21:27 39.7261 -122.2133 357° North 402 463 32,000  Level Oakland Center
21:29 39.8364 -122.2208 357° North 398 458 32,000  Level Oakland Center
21:30 39.9461 -122.2278 357° North 397 457 32,000  Level Oakland Center
21:31 40.0558 -122.2333 358° North 398 458 32,000  Level Oakland Center
21:32 40.1819 -122.2397 358° North 404 465 32,000  Level Oakland Center
21:33 40.2950 -122.2467 357° North 408 470 32,000  Level Oakland Center
21:34 40.4033 -122.2536 357° North 398 458 32,000  Level Oakland Center
21:35 40.5142 -122.2608 357° North 398 458 32,000  Level Oakland Center
21:36 40.6258 -122.2664 358° North 402 463 32,000  Level Oakland Center
21:37 40.7364 -122.2731 357° North 401 461 32,000  Level Oakland Center
21:38 40.8475 -122.2792 358° North 400 460 32,000  Level Oakland Center
21:39 40.9811 -122.2867 358° North 402 463 32,000  Level Oakland Center
21:40 41.0917 -122.2947 357° North 400 460 32,000  Level Oakland Center
21:41 41.2028 -122.3042 356° North 399 459 32,000  Level Oakland Center
21:42 41.3144 -122.3094 358° North 402 463 32,000  Level Oakland Center
21:42 41.3806 -122.3142 357° North 400 460 32,000  Level Seattle Center
21:43 41.4936 -122.3194 358° North 395 455 32,000  Level Seattle Center
21:44 41.6019 -122.3256 358° North 389 448 32,000  Level Seattle Center
21:45 41.7108 -122.3328 357° North 387 445 32,000  Level Seattle Center
21:46 41.8192 -122.3381 358° North 385 443 32,000  Level Seattle Center
21:47 41.9283 -122.3433 358° North 388 447 32,000  Level Seattle Center
21:48 42.0361 -122.3508 357° North 386 444 32,000  Level Seattle Center
21:50 42.1442 -122.3572 357° North 384 442 32,000  Level Seattle Center
21:51 42.2536 -122.3628 358° North 391 450 32,000 -360 Level Seattle Center
21:52 42.3625 -122.3700 357° North 389 448 31,300 -840 Descending Seattle Center
21:53 42.4708 -122.3767 357° North 389 448 30,300 -660 Descending Seattle Center
21:54 42.5819 -122.3842 357° North 399 459 30,000 -180 Descending Seattle Center
21:55 42.6919 -122.3914 357° North 396 456 30,000  Level Seattle Center
21:56 42.8069 -122.3989 357° North 398 458 30,000  Level Seattle Center
21:57 42.9175 -122.4039 358° North 398 458 30,000  Level Seattle Center
21:58 43.0286 -122.4114 357° North 399 459 30,000  Level Seattle Center
21:59 43.1406 -122.4178 358° North 403 464 30,000  Level Seattle Center
22:00 43.2761 -122.4264 357° North 406 467 30,000  Level Seattle Center
22:01 43.3892 -122.4347 357° North 409 471 30,000  Level Seattle Center
22:02 43.5031 -122.4425 357° North 409 471 30,000  Level Seattle Center
22:03 43.6175 -122.4503 357° North 412 474 30,000  Level Seattle Center
22:04 43.7331 -122.4564 358° North 416 479 30,000  Level Seattle Center
22:05 43.8464 -122.4644 357° North 412 474 30,000  Level Seattle Center
22:06 43.9603 -122.4711 358° North 409 471 30,000  Level Seattle Center
22:07 44.0750 -122.4789 357° North 413 475 30,000  Level Seattle Center
22:08 44.1864 -122.4861 357° North 405 466 30,000  Level Seattle Center
22:09 44.2981 -122.4942 357° North 404 465 30,000  Level Seattle Center
22:10 44.4106 -122.5008 358° North 405 466 30,000  Level Seattle Center
22:11 44.5222 -122.5111 356° North 405 466 30,000  Level Seattle Center
22:12 44.6333 -122.5172 358° North 403 464 30,000  Level Seattle Center
22:13 44.7450 -122.5253 357° North 403 464 30,000  Level Seattle Center
22:14 44.8667 -122.5328 357° North 405 466 30,000  Level Seattle Center
22:15 44.9817 -122.5417 357° North 413 475 30,000  Level Seattle Center
22:16 45.0950 -122.5481 358° North 412 474 30,000 -540 Level Seattle Center
22:17 45.2075 -122.5553 357° North 407 468 29,000 -1,080 Descending Seattle Center
22:18 45.3136 -122.5617 358° North 389 448 27,900 -1,200 Descending Seattle Center
22:19 45.4203 -122.5694 357° North 385 443 26,600 -1,380 Descending Seattle Center
22:20 45.5472 -122.5778 357° North 384 442 25,100 -1,260 Descending Seattle Center
22:21 45.6508 -122.5858 357° North 377 434 24,100 -600 Descending Seattle Center
22:22 45.7539 -122.5922 358° North 374 430 24,000 -60 Descending Seattle Center
22:23 45.8567 -122.6172 350° North 375 432 24,000  Level Seattle Center
22:24 45.9650 -122.6442 350° North 393 452 24,000 -360 Level Seattle Center
22:25 46.0742 -122.6728 350° North 398 458 23,300 -900 Descending Seattle Center
22:26 46.1817 -122.7022 349° North 396 456 22,200 -1,200 Descending Seattle Center
22:27 46.2883 -122.6964 North 391 450 21,000 -1,080 Descending Seattle Center
22:28 46.3950 -122.6794 North 387 445 20,100 -1,140 Descending Seattle Center
22:29 46.4978 -122.6678 North 378 435 18,700 -1,500 Descending Seattle Center
22:30 46.6008 -122.6547 North 376 433 17,100 -2,040 Descending Seattle Center
22:31 46.6703 -122.6483 North 368 423 15,500 -2,220 Descending Seattle Center
22:31 46.7008 -122.6433 North 363 418 14,900 -1,800 Descending Seattle Center
22:31 46.7517 -122.6367 North 355 409 14,100 -1,920 Descending Seattle Center
22:32 46.8128 -122.6311 North 339 390 13,000 -1,680 Descending Seattle Center
22:32 46.8442 -122.6258 North 329 379 12,400 -1,020 Descending Seattle Center
22:33 46.9008 -122.6206 North 321 369 12,000 -420 Descending Seattle Center
22:33 46.9311 -122.6178 North 313 360 12,000  Level Seattle Center
22:34 46.9886 -122.6097 North 320 368 12,000  Level Seattle Center
22:35 47.0342 -122.6044 North 318 366 12,000 -240 Level Seattle Center
22:35 47.0731 -122.6003 North 307 353 11,800 -780 Descending Seattle Center
22:35 47.1078 -122.5969 North 285 328 11,300 -900 Descending Seattle Center
22:36 47.1500 -122.5917 North 283 326 10,900 -720 Descending Seattle Center
22:36 47.1853 -122.5875 North 277 319 10,600 -840 Descending Seattle Center
22:37 47.2275 -122.5811 North 282 325 10,100 -720 Descending Seattle Center
22:37 47.2592 -122.5539 30° Northeast 279 321 9,900 -600 Descending Seattle Center
22:38 47.2967 -122.5386 15° North 276 318 9,500 -900 Descending Seattle Center
22:38 47.3339 -122.5425 356° North 274 315 9,000 -1,320 Descending Seattle Center
22:39 47.3725 -122.5450 357° North 274 315 8,200 -1,620 Descending Seattle Center
22:40 47.4086 -122.5475 357° North 271 312 7,400 -1,500 Descending Seattle Center
22:40 47.4467 -122.5519 355° North 269 310 6,700 -1,620 Descending Seattle Center
22:41 47.4950 -122.5561 357° North 265 305 5,600 -1,440 Descending Seattle Center
22:41 47.5189 -122.5628 349° North 262 302 5,300 -1,200 Descending Seattle Center
22:42 47.5603 -122.5858 339° North 235 270 4,400 -1,320 Descending Seattle Center
22:42 47.5906 -122.5989 344° North 224 258 4,000 -1,020 Descending Seattle Center
22:43 47.6144 -122.5989 360° North 190 219 3,400 -1,500 Descending Seattle Center
22:43 47.6406 -122.5825 23° Northeast 189 217 2,500 -1,200 Descending Seattle Center
22:44 47.6653 -122.5711 17° North 186 214 2,200 -300 Descending Seattle Center
22:44 47.6808 -122.5622 21° North 189 217 2,200  Level Seattle Center
22:45 47.7000 -122.5325 46° Northeast 203 234 2,200  Level Seattle Center
22:45 47.6989 -122.4794 92° East 197 227 2,200  Level Seattle Center
22:46 47.6908 -122.4519 114° Southeast 194 223 2,200  Level Seattle Center
22:46 47.6656 -122.4200 140° Southeast 192 221 2,200  Level Seattle Center
22:47 47.6503 -122.4053 147° Southeast 182 209 2,200 -240 Level Seattle Center
22:47 47.6228 -122.3819 150° Southeast 181 208 2,000 -720 Descending Seattle Center
22:48 47.6081 -122.3694 150° Southeast 176 203 1,500 -1,020 Descending Seattle Center
22:48 47.5828 -122.3472 149° Southeast 168 193 1,000 -840 Descending Seattle Center
22:49 47.5708 -122.3372 151° Southeast 152 175 700 -600 Descending Seattle Center
22:49 47.5531 -122.3228 151° Southeast 144 166 400 18,120 Descending Seattle Center
22:50 47.5156 -122.2917 151° Southeast 141 162 30,000 29,580 Climbing Seattle Center